createdAt,value
2019-03-08T00:00:24.238Z,19.60
2019-03-08T00:02:52.817Z,19.60
2019-03-08T00:05:21.530Z,19.60
2019-03-08T00:07:50.061Z,19.60
2019-03-08T00:10:18.827Z,19.50
2019-03-08T00:12:47.338Z,19.50
2019-03-08T00:15:15.890Z,19.50
2019-03-08T00:17:44.342Z,19.50
2019-03-08T00:20:13.274Z,19.50
2019-03-08T00:22:41.773Z,19.50
2019-03-08T00:25:14.111Z,19.50
2019-03-08T00:27:42.637Z,19.40
2019-03-08T00:30:12.945Z,19.40
2019-03-08T00:32:41.980Z,19.40
2019-03-08T00:35:11.345Z,19.40
2019-03-08T00:37:40.201Z,19.40
2019-03-08T00:40:13.703Z,19.40
2019-03-08T00:42:42.347Z,19.40
2019-03-08T00:45:13.398Z,19.30
2019-03-08T00:47:43.445Z,19.30
2019-03-08T00:50:15.269Z,19.30
2019-03-08T00:52:43.816Z,19.30
2019-03-08T00:55:12.904Z,19.30
2019-03-08T00:57:41.598Z,19.30
2019-03-08T01:00:18.618Z,19.30
2019-03-08T01:02:47.265Z,19.30
2019-03-08T01:05:19.642Z,19.20
2019-03-08T01:07:48.096Z,19.30
2019-03-08T01:10:24.723Z,19.20
2019-03-08T01:12:53.175Z,19.20
2019-03-08T01:15:21.697Z,19.20
2019-03-08T01:17:50.297Z,19.20
2019-03-08T01:20:20.260Z,19.20
2019-03-08T01:22:49.579Z,19.20
2019-03-08T01:25:18.418Z,19.20
2019-03-08T01:28:04.597Z,19.20
2019-03-08T01:30:34.212Z,19.10
2019-03-08T01:33:02.763Z,19.10
2019-03-08T01:35:31.278Z,19.10
2019-03-08T01:37:59.846Z,19.10
2019-03-08T01:40:28.568Z,19.10
2019-03-08T01:42:59.884Z,19.10
2019-03-08T01:45:28.509Z,19.10
2019-03-08T01:47:57.756Z,19.10
2019-03-08T01:50:26.474Z,19.10
2019-03-08T01:52:54.951Z,19.10
2019-03-08T01:55:23.461Z,19.00
2019-03-08T01:57:51.975Z,19.00
2019-03-08T02:00:22.121Z,19.00
2019-03-08T02:02:50.565Z,19.00
2019-03-08T02:05:19.800Z,19.00
2019-03-08T02:07:48.347Z,19.00
2019-03-08T02:10:17.007Z,19.00
2019-03-08T02:12:45.491Z,19.00
2019-03-08T02:15:18.309Z,19.00
2019-03-08T02:17:46.931Z,19.00
2019-03-08T02:20:21.231Z,19.00
2019-03-08T02:22:49.793Z,19.00
2019-03-08T02:25:18.350Z,18.90
2019-03-08T02:27:46.948Z,18.90
2019-03-08T02:30:19.122Z,18.90
2019-03-08T02:32:47.666Z,18.90
2019-03-08T02:35:20.035Z,18.90
2019-03-08T02:37:48.567Z,18.90
2019-03-08T02:40:33.827Z,18.90
2019-03-08T02:43:04.670Z,18.90
2019-03-08T02:45:34.732Z,18.90
2019-03-08T02:48:03.533Z,18.90
2019-03-08T02:50:32.095Z,18.90
2019-03-08T02:53:00.536Z,18.80
2019-03-08T02:55:29.040Z,18.80
2019-03-08T02:57:57.557Z,18.80
2019-03-08T03:00:28.073Z,18.80
2019-03-08T03:02:56.627Z,18.80
2019-03-08T03:05:25.772Z,18.80
2019-03-08T03:07:54.338Z,18.80
2019-03-08T03:10:23.954Z,18.80
2019-03-08T03:12:52.595Z,18.80
2019-03-08T03:15:21.062Z,18.80
2019-03-08T03:17:49.624Z,18.80
2019-03-08T03:20:18.236Z,18.80
2019-03-08T03:22:46.772Z,18.70
2019-03-08T03:25:15.903Z,18.70
2019-03-08T03:27:44.594Z,18.70
2019-03-08T03:30:20.407Z,18.70
2019-03-08T03:32:48.978Z,18.70
2019-03-08T03:35:17.516Z,18.70
2019-03-08T03:37:46.647Z,18.70
2019-03-08T03:40:16.507Z,18.70
2019-03-08T03:42:45.058Z,18.70
2019-03-08T03:45:21.136Z,18.70
2019-03-08T03:47:49.640Z,18.70
2019-03-08T03:50:18.710Z,18.60
2019-03-08T03:52:47.515Z,18.60
2019-03-08T03:55:17.311Z,18.60
2019-03-08T03:57:46.618Z,18.60
2019-03-08T04:00:20.208Z,18.60
2019-03-08T04:02:48.765Z,18.60
2019-03-08T04:05:17.360Z,18.60
2019-03-08T04:07:45.941Z,18.60
2019-03-08T04:10:15.702Z,18.60
2019-03-08T04:12:44.288Z,18.60
2019-03-08T04:15:18.886Z,18.60
2019-03-08T04:17:47.713Z,18.60
2019-03-08T04:20:20.162Z,18.60
2019-03-08T04:22:48.665Z,18.60
2019-03-08T04:25:17.210Z,18.60
2019-03-08T04:27:45.780Z,18.50
2019-03-08T04:30:18.998Z,18.50
2019-03-08T04:32:47.551Z,18.50
2019-03-08T04:35:16.065Z,18.50
2019-03-08T04:37:44.546Z,18.50
2019-03-08T04:40:13.897Z,18.50
2019-03-08T04:42:42.443Z,18.50
2019-03-08T04:45:13.516Z,18.50
2019-03-08T04:47:42.100Z,18.50
2019-03-08T04:50:14.476Z,18.50
2019-03-08T04:52:43.098Z,18.50
2019-03-08T04:55:19.498Z,18.50
2019-03-08T04:57:48.375Z,18.50
2019-03-08T05:00:17.958Z,18.50
2019-03-08T05:02:46.609Z,18.60
2019-03-08T05:05:15.103Z,18.50
2019-03-08T05:07:43.607Z,18.60
2019-03-08T05:10:19.719Z,18.60
2019-03-08T05:12:48.242Z,18.60
2019-03-08T05:15:16.957Z,18.60
2019-03-08T05:17:45.511Z,18.60
2019-03-08T05:20:14.027Z,18.60
2019-03-08T05:22:43.373Z,18.60
2019-03-08T05:25:13.462Z,18.70
2019-03-08T05:27:41.979Z,18.70
2019-03-08T05:30:15.480Z,18.70
2019-03-08T05:32:43.977Z,18.70
2019-03-08T05:35:13.369Z,18.70
2019-03-08T05:37:42.277Z,18.70
2019-03-08T05:40:15.591Z,18.70
2019-03-08T05:42:44.168Z,18.80
2019-03-08T05:45:14.009Z,18.80
2019-03-08T05:47:42.549Z,18.80
2019-03-08T05:50:11.815Z,18.80
2019-03-08T05:52:40.899Z,18.90
2019-03-08T05:55:10.722Z,18.90
2019-03-08T05:57:40.610Z,18.90
2019-03-08T06:00:15.714Z,18.90
2019-03-08T06:02:44.320Z,18.90
2019-03-08T06:05:14.524Z,19.00
2019-03-08T06:07:43.005Z,19.00
2019-03-08T06:10:30.713Z,19.00
2019-03-08T06:13:00.022Z,19.00
2019-03-08T06:15:28.733Z,19.00
2019-03-08T06:17:57.451Z,19.10
2019-03-08T06:20:25.947Z,19.10
2019-03-08T06:22:54.699Z,19.10
2019-03-08T06:25:23.324Z,19.10
2019-03-08T06:27:51.822Z,19.20
2019-03-08T06:30:20.528Z,19.20
2019-03-08T06:32:49.405Z,19.20
2019-03-08T06:35:17.935Z,19.20
2019-03-08T06:37:46.424Z,19.30
2019-03-08T06:40:14.976Z,19.30
2019-03-08T06:42:43.498Z,19.30
2019-03-08T06:45:16.725Z,19.30
2019-03-08T06:47:45.526Z,19.40
2019-03-08T06:50:15.887Z,19.40
2019-03-08T06:52:44.675Z,19.40
2019-03-08T06:55:14.353Z,19.40
2019-03-08T06:57:42.896Z,19.50
2019-03-08T07:00:16.242Z,19.50
2019-03-08T07:02:44.950Z,19.50
2019-03-08T07:05:13.494Z,19.60
2019-03-08T07:07:41.938Z,19.60
2019-03-08T07:10:11.301Z,19.60
2019-03-08T07:12:39.863Z,19.70
2019-03-08T07:15:08.325Z,19.70
2019-03-08T07:17:37.159Z,19.80
2019-03-08T07:20:08.821Z,19.80
2019-03-08T07:22:56.387Z,19.90
2019-03-08T07:25:51.502Z,19.90
2019-03-08T07:28:20.512Z,20.00
2019-03-08T07:30:58.227Z,20.10
2019-03-08T07:33:31.586Z,20.10
2019-03-08T07:36:03.391Z,20.20
2019-03-08T07:38:50.021Z,20.20
2019-03-08T07:41:35.483Z,20.30
2019-03-08T07:44:14.472Z,20.40
2019-03-08T07:46:54.131Z,20.40
2019-03-08T07:49:39.488Z,20.50
2019-03-08T07:52:12.627Z,20.50
2019-03-08T07:54:42.804Z,20.60
2019-03-08T07:57:13.016Z,20.70
2019-03-08T07:59:53.433Z,20.70
2019-03-08T08:02:17.619Z,20.60
2019-03-08T08:04:53.961Z,20.60
2019-03-08T08:07:24.256Z,20.60
2019-03-08T08:09:59.895Z,20.50
2019-03-08T08:12:46.299Z,20.60
2019-03-08T08:15:19.320Z,20.60
2019-03-08T08:18:04.594Z,20.60
2019-03-08T08:20:42.183Z,20.50
2019-03-08T08:23:14.899Z,20.50
2019-03-08T08:25:51.046Z,20.50
2019-03-08T08:28:21.273Z,20.60
2019-03-08T08:31:08.141Z,20.60
2019-03-08T08:33:53.674Z,20.60
2019-03-08T08:36:26.915Z,20.60
2019-03-08T08:38:57.085Z,20.70
2019-03-08T08:41:31.709Z,20.70
2019-03-08T08:44:12.326Z,20.70
2019-03-08T08:46:55.355Z,20.60
2019-03-08T08:49:28.225Z,20.60
2019-03-08T08:51:58.467Z,20.70
2019-03-08T08:54:40.839Z,20.70
2019-03-08T08:57:10.989Z,20.70
2019-03-08T08:59:50.256Z,20.70
2019-03-08T09:02:20.361Z,20.70
2019-03-08T09:04:50.588Z,20.70
2019-03-08T09:07:25.287Z,20.70
2019-03-08T09:10:04.150Z,20.70
2019-03-08T09:12:44.121Z,20.70
2019-03-08T09:15:17.594Z,20.80
2019-03-08T09:17:53.484Z,20.80
2019-03-08T09:20:32.807Z,20.90
2019-03-08T09:23:02.950Z,20.90
2019-03-08T09:25:33.307Z,21.00
2019-03-08T09:28:06.462Z,21.00
2019-03-08T09:30:45.680Z,21.10
2019-03-08T09:33:15.863Z,21.10
2019-03-08T09:36:02.611Z,21.10
2019-03-08T09:38:32.708Z,21.00
2019-03-08T09:41:11.565Z,21.00
2019-03-08T09:43:42.877Z,21.10
2019-03-08T09:46:18.880Z,21.10
2019-03-08T09:48:51.708Z,21.10
2019-03-08T09:51:33.943Z,21.20
2019-03-08T09:54:07.095Z,21.20
2019-03-08T09:56:53.631Z,21.30
2019-03-08T09:59:27.593Z,21.30
2019-03-08T10:01:57.888Z,21.30
2019-03-08T10:04:44.071Z,21.30
2019-03-08T10:07:17.098Z,21.40
2019-03-08T10:10:03.582Z,21.40
2019-03-08T10:12:36.752Z,21.40
2019-03-08T10:15:10.463Z,21.40
2019-03-08T10:17:43.694Z,21.40
2019-03-08T10:20:13.794Z,21.40
2019-03-08T10:22:45.792Z,21.40
2019-03-08T10:25:21.788Z,21.40
2019-03-08T10:27:51.962Z,21.40
2019-03-08T10:30:25.147Z,21.40
2019-03-08T10:32:55.351Z,21.40
2019-03-08T10:35:34.245Z,21.40
2019-03-08T10:38:04.486Z,21.40
2019-03-08T10:40:51.261Z,21.50
2019-03-08T10:43:39.471Z,21.50
2019-03-08T10:46:18.565Z,21.50
2019-03-08T10:48:52.913Z,21.50
2019-03-08T10:51:32.049Z,21.50
2019-03-08T10:54:11.282Z,21.50
2019-03-08T10:56:47.463Z,21.40
2019-03-08T10:59:17.907Z,21.40
2019-03-08T11:02:06.428Z,21.40
2019-03-08T11:04:42.950Z,21.30
2019-03-08T11:07:15.796Z,21.40
2019-03-08T11:09:45.967Z,21.40
2019-03-08T11:12:22.406Z,21.40
2019-03-08T11:14:52.672Z,21.40
2019-03-08T11:17:39.188Z,21.40
2019-03-08T11:20:28.575Z,21.40
2019-03-08T11:22:58.702Z,21.40
2019-03-08T11:25:34.981Z,21.50
2019-03-08T11:28:03.310Z,21.50
2019-03-08T11:30:53.900Z,21.50
2019-03-08T11:33:27.981Z,21.40
2019-03-08T11:36:00.606Z,21.40
2019-03-08T11:38:30.840Z,21.40
2019-03-08T11:41:17.720Z,21.20
2019-03-08T11:43:51.408Z,21.10
2019-03-08T11:46:27.587Z,21.20
2019-03-08T11:49:13.998Z,21.20
2019-03-08T11:52:00.164Z,21.20
2019-03-08T11:54:42.600Z,21.20
2019-03-08T11:57:12.834Z,21.20
2019-03-08T11:59:45.728Z,21.20
2019-03-08T12:02:19.143Z,21.20
2019-03-08T12:04:49.482Z,21.20
2019-03-08T12:07:25.556Z,21.20
2019-03-08T12:10:00.317Z,21.20
2019-03-08T12:12:47.102Z,21.20
2019-03-08T12:15:17.419Z,21.20
2019-03-08T12:17:50.643Z,21.20
2019-03-08T12:20:21.380Z,21.20
